Observations for DECIMOMANNU IT-AFB, Italy (LIED)

LIED 260355Z 02001KT 9999 FEW030 20/17 Q1015 RMK FEW VIS MIN 9999 WIND THR35 05001KT WIND THR17 /////KT BLU 
LIED 260255Z 03002KT CAVOK 21/17 Q1015 RMK SKC VIS MIN 9999 WIND THR35 34002KT WIND THR17 /////KT BLU   
LIED 260155Z 07001KT CAVOK 21/18 Q1015 RMK SKC VIS MIN 9999 WIND THR35 07002KT WIND THR17 /////KT BLU   
LIED 260055Z 05003KT CAVOK 22/18 Q1015 RMK SKC VIS MIN 9999 WIND THR35 04002KT WIND THR17 /////KT BLU   
LIED 252355Z 36003KT CAVOK 23/20 Q1015 RMK SKC VIS MIN 9999 WIND THR35 30002KT WIND THR17 /////KT BLU   
LIED 252255Z 01002KT CAVOK 24/21 Q1015 RMK SKC VIS MIN 9999 WIND THR35 02003KT WIND THR17 /////KT BLU   
LIED 252155Z 10003KT 9999 FEW010 25/22 Q1016 RMK FEW VIS MIN 9999 WIND THR35 10004KT WIND THR17 /////KT BLU 
LIED 252055Z 07004KT 9999 FEW010 25/22 Q1015 RMK FEW VIS MIN 9999 WIND THR35 08003KT WIND THR17 /////KT BLU 
LIED 251955Z 05002KT 9999 SCT040 26/23 Q1015 RMK SCT VIS MIN 9999 WIND THR35 05003KT WIND THR17 /////KT BLU 
LIED 251855Z 13005KT 9999 FEW025 BKN040 26/23 Q1015 RMK BKN VIS MIN 9999 WIND THR35 14007KT WIND THR17 /////KT BLU  
LIED 251755Z 13009KT 9999 FEW025CB SCT040 27/24 Q1014 RMK BKN VIS MIN 9999 WIND THR35 14010KT WIND THR17 /////KT BLU
LIED 251655Z 13010KT 9999 FEW025CB SCT060 29/23 Q1014 RMK SCT VIS MIN 9999 WIND THR35 13011KT WIND THR17 /////KT BLU
LIED 251555Z 16010KT 9999 FEW025TCU 30/23 Q1014 RMK SCT VIS MIN 9999 WIND THR35 15009KT WIND THR17 /////KT BLU  
LIED 251455Z 15012KT 9999 FEW025TCU 30/24 Q1014 RMK BKN SCT090 VIS MIN 9999 WIND THR35 15012KT WIND THR17 /////KT BLU   
LIED 251355Z 13012KT 9999 FEW025CB FEW028TCU 32/22 Q1014 RMK SCT VIS MIN 9999 WIND THR35 15012KT WIND THR17 /////KT BLU 
LIED 251255Z 14013KT 9999 FEW025TCU 32/21 Q1015 RMK FEW VIS MIN 9999 WIND THR35 14015KT WIND THR17 /////KT BLU  
LIED 251155Z 14011KT 9999 FEW025TCU 32/20 Q1015 RMK FEW VIS MIN 9999 WIND THR35 14012KT WIND THR17 /////KT BLU  
LIED 251055Z 17010KT 9999 FEW025TCU SCT028 33/21 Q1015 RMK SCT VIS MIN 9999 WIND THR35 17007KT WIND THR17 /////KT BLU   
LIED 250955Z 10004KT 9999 FEW025 31/22 Q1015 RMK FEW VIS MIN 9999 WIND THR35 17005KT WIND THR17 /////KT BLU 
LIED 250855Z 11005KT 9999 FEW020 30/24 Q1015 RMK FEW VIS MIN 9999 WIND THR35 17004KT WIND THR17 /////KT BLU 
LIED 250755Z 32003KT 9999 FEW015 26/22 Q1015 RMK FEW VIS MIN 9999 WIND THR35 29003KT WIND THR17 /////KT BLU 
LIED 250655Z 29002KT 9999 SCT015 23/19 Q1015 RMK SCT VIS MIN 9999 WIND THR35 31003KT WIND THR17 /////KT BLU 
LIED 250555Z 30001KT 9999 FEW006 SCT012 21/18 Q1015 RMK BKN VIS MIN 9999 WIND THR35 29003KT WIND THR17 /////KT BLU  
LIED 250455Z 03001KT 9999 FEW005 SCT015 21/18 Q1015 RMK BKN VIS MIN 9999 WIND THR35 02002KT WIND THR17 /////KT BLU